Time;durP1;ratioP1;P1;durP2;ratioP2;P2;SDS_P1;SDS_P2;PMS_P1;PMS_P2;Temp;Humidity;BMP_temperature;BMP_pressure;BME280_temperature;BME280_humidity;BME280_pressure;Samples;Min_cycle;Max_cycle;Signal;HPM_P1;HPM_P2
2022/11/25 00:01:08;;;;;;;33.87;25.80;;;3.20;99.90;;;;;;5069957;28;20745;-52
2022/11/25 00:03:36;;;;;;;48.13;33.07;;;3.30;99.90;;;;;;5069811;28;20250;-52
2022/11/25 00:06:11;;;;;;;26.30;22.23;;;3.30;99.90;;;;;;5070250;28;20295;-52
2022/11/25 00:08:40;;;;;;;42.63;32.73;;;3.40;99.90;;;;;;5070146;28;20293;-52
2022/11/25 00:11:09;;;;;;;47.90;39.50;;;3.50;99.90;;;;;;5070024;28;20206;-52
2022/11/25 00:13:37;;;;;;;29.77;22.03;;;3.50;99.90;;;;;;5069704;28;20283;-52
2022/11/25 00:16:08;;;;;;;20.50;13.53;;;3.50;99.90;;;;;;5061710;28;20225;-52
2022/11/25 00:18:37;;;;;;;28.07;19.33;;;3.50;99.90;;;;;;5070097;28;20278;-52
2022/11/25 00:21:07;;;;;;;48.80;41.80;;;3.60;99.90;;;;;;5070005;28;20298;-52
2022/11/25 00:23:37;;;;;;;63.57;31.80;;;3.60;99.90;;;;;;5069584;28;20230;-52
2022/11/25 00:26:09;;;;;;;52.47;24.87;;;3.70;99.90;;;;;;5069949;28;20321;-52
2022/11/25 00:28:38;;;;;;;36.33;27.17;;;3.70;99.90;;;;;;5067309;28;20289;-52
2022/11/25 00:31:08;;;;;;;39.77;34.47;;;3.60;99.90;;;;;;5069882;28;20293;-52
2022/11/25 00:33:37;;;;;;;44.17;32.10;;;3.70;99.90;;;;;;5068974;28;20284;-52
2022/11/25 00:36:14;;;;;;;27.17;16.47;;;3.70;99.90;;;;;;5068781;28;20615;-52
2022/11/25 00:38:44;;;;;;;55.50;32.67;;;3.80;99.90;;;;;;5069481;28;20287;-52
2022/11/25 00:46:43;;;;;;;28.20;22.50;;;3.90;99.90;;;;;;5069092;28;20260;-52
2022/11/25 00:49:11;;;;;;;28.77;20.83;;;4.00;99.90;;;;;;5068769;28;20208;-52
2022/11/25 00:51:40;;;;;;;41.10;28.13;;;4.00;99.90;;;;;;5069013;28;20298;-52
2022/11/25 00:54:09;;;;;;;27.23;19.37;;;4.00;99.90;;;;;;5069088;28;20285;-52
2022/11/25 00:56:37;;;;;;;25.17;20.80;;;4.00;99.90;;;;;;5068984;28;20270;-52
2022/11/25 00:59:05;;;;;;;28.50;19.57;;;4.10;99.90;;;;;;5068587;28;20301;-52
2022/11/25 01:01:34;;;;;;;37.43;30.70;;;4.10;99.90;;;;;;5068423;28;20216;-53
2022/11/25 01:04:02;;;;;;;50.93;25.27;;;4.10;99.90;;;;;;5068485;28;20227;-52
2022/11/25 01:06:30;;;;;;;27.40;23.63;;;4.10;99.90;;;;;;5069349;28;20266;-52
2022/11/25 01:08:58;;;;;;;48.07;35.83;;;4.20;99.90;;;;;;5069444;28;20290;-53
2022/11/25 01:11:27;;;;;;;34.80;17.17;;;4.10;99.90;;;;;;5068699;28;20294;-53
2022/11/25 01:13:57;;;;;;;49.43;34.20;;;4.20;99.90;;;;;;5068856;28;20296;-53
2022/11/25 01:16:29;;;;;;;37.73;25.33;;;4.20;99.90;;;;;;5068534;28;20231;-52
2022/11/25 01:18:59;;;;;;;71.20;34.57;;;4.20;99.90;;;;;;5068869;28;20672;-54
2022/11/25 01:21:29;;;;;;;34.57;25.60;;;4.30;99.90;;;;;;5068912;28;20772;-53
2022/11/25 01:23:59;;;;;;;48.40;33.13;;;4.30;99.90;;;;;;5068436;28;20790;-52
2022/11/25 01:26:29;;;;;;;29.40;26.23;;;4.40;99.90;;;;;;5069047;28;20315;-52
2022/11/25 01:28:59;;;;;;;54.93;34.10;;;4.40;99.90;;;;;;5067413;28;20617;-52
2022/11/25 01:31:29;;;;;;;56.57;38.73;;;4.40;99.90;;;;;;5061696;28;20245;-52
2022/11/25 01:33:59;;;;;;;60.30;28.67;;;4.40;99.90;;;;;;5065394;28;20207;-52
2022/11/25 01:36:28;;;;;;;57.37;30.97;;;4.40;99.90;;;;;;5068637;28;20313;-52
2022/11/25 01:38:59;;;;;;;106.20;44.63;;;4.40;99.90;;;;;;5057904;28;20204;-52
2022/11/25 01:41:31;;;;;;;47.20;36.97;;;4.50;99.90;;;;;;5069043;28;20211;-52
2022/11/25 01:44:08;;;;;;;50.43;29.23;;;4.50;99.90;;;;;;5068212;28;20338;-51
2022/11/25 01:46:53;;;;;;;67.77;45.10;;;4.50;99.90;;;;;;5067222;28;20226;-52
2022/11/25 01:49:29;;;;;;;56.77;44.40;;;4.40;99.90;;;;;;5067755;28;20236;-53
2022/11/25 01:52:02;;;;;;;47.93;30.93;;;4.30;99.90;;;;;;5069603;28;20204;-51
2022/11/25 01:54:35;;;;;;;37.67;29.43;;;4.30;99.90;;;;;;5072129;28;20210;-52
2022/11/25 01:57:09;;;;;;;45.13;34.17;;;4.30;99.90;;;;;;5072963;28;20204;-53
2022/11/25 01:59:42;;;;;;;65.90;29.23;;;4.30;99.90;;;;;;5058967;28;20289;-53
2022/11/25 02:02:10;;;;;;;35.07;24.47;;;4.30;99.90;;;;;;5072761;28;20291;-52
2022/11/25 02:04:40;;;;;;;45.87;33.17;;;4.20;99.90;;;;;;5072073;28;20232;-52
2022/11/25 02:07:12;;;;;;;50.17;34.37;;;4.30;99.90;;;;;;5066390;28;20252;-51
2022/11/25 02:09:43;;;;;;;36.87;24.73;;;4.20;99.90;;;;;;5071877;28;20308;-53
2022/11/25 02:12:14;;;;;;;33.37;24.23;;;4.20;99.90;;;;;;5070918;28;20212;-52
2022/11/25 02:14:42;;;;;;;110.30;56.80;;;4.20;99.90;;;;;;5071479;28;20204;-52
2022/11/25 02:17:11;;;;;;;40.03;28.00;;;4.30;99.90;;;;;;5072864;28;20337;-52
2022/11/25 02:19:56;;;;;;;41.60;25.30;;;4.30;99.90;;;;;;5072375;28;20221;-52
2022/11/25 02:22:32;;;;;;;80.07;33.17;;;4.30;99.90;;;;;;5071964;28;20289;-52
2022/11/25 02:25:10;;;;;;;57.43;42.33;;;4.20;99.90;;;;;;5068805;28;20596;-52
2022/11/25 02:27:38;;;;;;;85.13;37.50;;;4.20;99.90;;;;;;5073576;28;20293;-52
2022/11/25 02:30:08;;;;;;;40.70;28.27;;;4.10;99.90;;;;;;5072465;28;20300;-51
2022/11/25 02:32:36;;;;;;;49.17;35.23;;;4.10;99.90;;;;;;5071590;28;20634;-52
2022/11/25 02:35:28;;;;;;;56.50;38.47;;;4.20;99.90;;;;;;5072145;28;20311;-52
2022/11/25 02:38:06;;;;;;;48.03;32.87;;;4.20;99.90;;;;;;5072493;28;20294;-52
2022/11/25 02:40:41;;;;;;;35.03;28.33;;;4.20;99.90;;;;;;5065879;28;20205;-52
2022/11/25 02:43:09;;;;;;;35.87;24.87;;;4.30;99.90;;;;;;5065484;28;20229;-52
2022/11/25 02:45:51;;;;;;;33.17;28.43;;;4.30;99.90;;;;;;5062858;28;20318;-52
2022/11/25 02:48:19;;;;;;;37.13;29.30;;;4.30;99.90;;;;;;5069974;28;20211;-52
2022/11/25 02:51:10;;;;;;;43.30;22.87;;;4.30;99.90;;;;;;5072372;28;20215;-52
2022/11/25 02:53:38;;;;;;;53.10;37.80;;;4.30;99.90;;;;;;5063145;28;20330;-53
2022/11/25 02:56:09;;;;;;;38.77;32.40;;;4.30;99.90;;;;;;5070762;28;20256;-53
2022/11/25 02:58:38;;;;;;;38.60;26.50;;;4.30;99.90;;;;;;5071548;28;20267;-52
2022/11/25 03:01:06;;;;;;;53.27;30.00;;;4.20;99.90;;;;;;5071851;28;20708;-52
2022/11/25 03:03:34;;;;;;;36.60;25.90;;;4.20;99.90;;;;;;5071139;28;20214;-52
2022/11/25 03:06:02;;;;;;;64.80;28.73;;;4.20;99.90;;;;;;5066290;28;20686;-53
2022/11/25 03:08:30;;;;;;;56.70;34.73;;;4.20;99.90;;;;;;5071775;28;20249;-53
2022/11/25 03:10:59;;;;;;;53.57;30.87;;;4.20;99.90;;;;;;5070944;28;20291;-52
2022/11/25 03:13:29;;;;;;;64.00;40.93;;;4.30;99.90;;;;;;5070935;28;20672;-51
2022/11/25 03:15:57;;;;;;;61.10;46.73;;;4.30;99.90;;;;;;5071157;28;20306;-53
2022/11/25 03:18:25;;;;;;;40.77;32.53;;;4.30;99.90;;;;;;5071593;28;20321;-52
2022/11/25 03:20:54;;;;;;;44.73;36.43;;;4.30;99.90;;;;;;5070579;28;20664;-52
2022/11/25 03:23:22;;;;;;;104.83;51.10;;;4.40;99.90;;;;;;5064185;28;20295;-52
2022/11/25 03:25:50;;;;;;;66.83;39.20;;;4.50;99.90;;;;;;5070308;28;20599;-52
2022/11/25 03:28:18;;;;;;;55.83;40.87;;;4.50;99.90;;;;;;5071340;28;20206;-51
2022/11/25 03:30:48;;;;;;;46.20;33.00;;;4.60;99.90;;;;;;5071225;28;20740;-52
2022/11/25 03:33:16;;;;;;;60.70;34.93;;;4.60;99.90;;;;;;5070349;28;20209;-52
2022/11/25 03:35:44;;;;;;;80.57;38.20;;;4.70;99.90;;;;;;5070217;28;20226;-52
2022/11/25 03:38:12;;;;;;;59.90;36.77;;;4.70;99.90;;;;;;5070987;28;20291;-53
2022/11/25 03:40:40;;;;;;;73.43;42.03;;;4.70;99.90;;;;;;5070801;28;20313;-52
2022/11/25 03:43:08;;;;;;;55.23;40.33;;;4.80;99.90;;;;;;5069698;28;20303;-53
2022/11/25 03:45:36;;;;;;;39.87;28.43;;;4.80;99.90;;;;;;5072836;28;20314;-52
2022/11/25 03:48:06;;;;;;;88.67;33.40;;;4.90;99.90;;;;;;5077772;28;20287;-52
2022/11/25 03:50:34;;;;;;;86.53;37.83;;;4.90;99.90;;;;;;5083683;28;20202;-53
2022/11/25 03:53:02;;;;;;;77.33;29.90;;;5.00;99.90;;;;;;5081872;28;20209;-53
2022/11/25 03:55:30;;;;;;;94.50;40.07;;;5.00;99.90;;;;;;5078698;28;20324;-52
2022/11/25 03:57:58;;;;;;;127.90;58.97;;;5.00;99.90;;;;;;5074805;28;20317;-54
2022/11/25 04:00:26;;;;;;;41.40;30.43;;;5.10;99.90;;;;;;5075770;28;20303;-51
2022/11/25 04:02:54;;;;;;;39.00;22.77;;;5.10;99.90;;;;;;5089924;28;20835;-55
2022/11/25 04:05:23;;;;;;;40.83;27.47;;;5.10;99.90;;;;;;5089300;28;20868;-52
2022/11/25 04:07:51;;;;;;;38.67;22.07;;;5.20;99.90;;;;;;5083149;28;20304;-52
2022/11/25 04:10:25;;;;;;;41.13;24.20;;;5.20;99.90;;;;;;5082355;28;20723;-53
2022/11/25 04:12:53;;;;;;;78.87;48.83;;;5.20;99.90;;;;;;5090255;28;20307;-53
2022/11/25 04:15:21;;;;;;;46.17;34.33;;;5.20;99.90;;;;;;5089127;28;20319;-53
2022/11/25 04:17:49;;;;;;;59.67;41.40;;;5.30;99.90;;;;;;5076642;28;20294;-53
2022/11/25 04:20:17;;;;;;;68.40;42.60;;;5.30;99.90;;;;;;5090045;28;20293;-53
2022/11/25 04:22:47;;;;;;;183.87;95.23;;;5.30;99.90;;;;;;5089539;28;20290;-52
2022/11/25 04:25:15;;;;;;;50.00;37.13;;;5.40;99.90;;;;;;5080173;28;20649;-53
2022/11/25 04:27:43;;;;;;;63.50;38.60;;;5.40;99.90;;;;;;5088166;28;20228;-52
2022/11/25 04:30:12;;;;;;;110.07;34.77;;;5.40;99.90;;;;;;5090250;28;20201;-53
2022/11/25 04:32:40;;;;;;;78.10;48.60;;;5.50;99.90;;;;;;5089710;28;20213;-52
2022/11/25 04:35:09;;;;;;;48.17;22.57;;;5.50;99.90;;;;;;5088108;28;21221;-52
2022/11/25 04:37:37;;;;;;;50.37;37.60;;;5.50;99.90;;;;;;5090067;28;20297;-52
2022/11/25 04:40:08;;;;;;;41.83;24.37;;;5.50;99.90;;;;;;5089697;28;20247;-53
2022/11/25 04:42:38;;;;;;;35.67;21.43;;;5.50;99.90;;;;;;5089010;28;20232;-53
2022/11/25 04:45:08;;;;;;;64.03;36.67;;;5.60;99.90;;;;;;5089373;28;20271;-52
2022/11/25 04:47:52;;;;;;;54.97;33.70;;;5.60;99.90;;;;;;5081717;28;20196;-53
2022/11/25 04:50:22;;;;;;;71.13;31.17;;;5.60;99.90;;;;;;5081980;28;20202;-52
2022/11/25 04:52:50;;;;;;;35.67;21.17;;;5.50;99.90;;;;;;5082815;28;20319;-52
2022/11/25 04:55:20;;;;;;;64.30;35.93;;;5.50;99.90;;;;;;5068049;28;20712;-52
2022/11/25 04:57:48;;;;;;;47.10;25.17;;;5.60;99.90;;;;;;5084505;28;20225;-52
2022/11/25 05:00:16;;;;;;;84.37;34.70;;;5.60;99.90;;;;;;5087938;28;20295;-53
2022/11/25 05:02:44;;;;;;;63.07;43.60;;;5.60;99.90;;;;;;5079828;28;20639;-53
2022/11/25 05:05:12;;;;;;;42.23;28.67;;;5.60;99.90;;;;;;5086553;28;20260;-53
2022/11/25 05:07:40;;;;;;;104.77;44.57;;;5.60;99.90;;;;;;5083668;28;20296;-53
2022/11/25 05:10:09;;;;;;;39.70;25.17;;;5.70;99.90;;;;;;5087583;28;20201;-52
2022/11/25 05:12:39;;;;;;;51.43;38.33;;;5.70;99.90;;;;;;5077857;28;20639;-52
2022/11/25 05:15:08;;;;;;;55.60;35.57;;;5.70;99.90;;;;;;5081676;28;20237;-52
2022/11/25 05:17:36;;;;;;;81.30;44.70;;;5.70;99.90;;;;;;5089471;28;20682;-52
2022/11/25 05:20:07;;;;;;;51.03;28.67;;;5.70;99.90;;;;;;5074416;28;20205;-53
2022/11/25 05:22:35;;;;;;;105.93;38.07;;;5.80;99.90;;;;;;5089028;28;20205;-53
2022/11/25 05:25:05;;;;;;;168.27;61.23;;;5.80;99.90;;;;;;5088458;28;20311;-53
2022/11/25 05:27:33;;;;;;;46.30;24.97;;;5.80;99.90;;;;;;5082864;28;20207;-53
2022/11/25 05:30:03;;;;;;;43.37;32.30;;;5.80;99.90;;;;;;5081091;28;20295;-53
2022/11/25 05:32:31;;;;;;;49.23;35.23;;;5.80;99.90;;;;;;5078874;28;20283;-53
2022/11/25 05:34:59;;;;;;;57.40;34.73;;;5.90;99.90;;;;;;5089044;28;20773;-53
2022/11/25 05:37:27;;;;;;;55.13;38.37;;;5.90;99.90;;;;;;5085097;28;20293;-52
2022/11/25 05:39:55;;;;;;;34.20;24.93;;;5.90;99.90;;;;;;5089113;28;20290;-52
2022/11/25 05:42:23;;;;;;;44.50;21.97;;;5.90;99.90;;;;;;5074144;28;20296;-52
2022/11/25 05:44:51;;;;;;;42.17;27.83;;;5.90;99.90;;;;;;5084994;28;20663;-53
2022/11/25 05:47:21;;;;;;;108.40;48.23;;;5.90;99.90;;;;;;5079320;28;20312;-53
2022/11/25 05:49:49;;;;;;;97.73;46.53;;;6.00;99.90;;;;;;5087798;28;20240;-52
2022/11/25 05:52:17;;;;;;;89.20;41.97;;;6.00;99.90;;;;;;5066311;28;20358;-52
2022/11/25 05:54:45;;;;;;;41.97;22.87;;;6.00;99.90;;;;;;5068925;28;20212;-52
2022/11/25 05:57:13;;;;;;;37.87;23.53;;;6.00;99.90;;;;;;5064294;28;20740;-52
2022/11/25 05:59:41;;;;;;;49.87;34.60;;;6.00;99.90;;;;;;5068569;28;20262;-52
2022/11/25 06:02:09;;;;;;;36.63;30.13;;;6.00;99.90;;;;;;5067556;28;20296;-52
2022/11/25 06:04:39;;;;;;;226.57;60.97;;;6.00;99.90;;;;;;5068331;28;20254;-52
2022/11/25 06:07:07;;;;;;;44.20;24.13;;;6.00;99.90;;;;;;5068377;28;20317;-52
2022/11/25 06:09:35;;;;;;;42.13;28.40;;;6.00;99.90;;;;;;5069063;28;20218;-53
2022/11/25 06:12:03;;;;;;;70.57;33.13;;;6.00;99.90;;;;;;5067960;28;20211;-52
2022/11/25 06:14:31;;;;;;;266.60;65.43;;;6.00;99.90;;;;;;5068740;28;20742;-52
2022/11/25 06:17:00;;;;;;;56.13;29.03;;;6.10;99.90;;;;;;5067252;28;20201;-52
2022/11/25 06:19:28;;;;;;;92.40;47.03;;;6.10;99.90;;;;;;5068664;28;20207;-51
2022/11/25 06:21:57;;;;;;;917.37;179.63;;;6.00;99.90;;;;;;5060637;28;20301;-53
2022/11/25 06:24:25;;;;;;;38.70;21.37;;;6.10;99.90;;;;;;5068023;28;20562;-52
2022/11/25 06:26:53;;;;;;;73.77;31.60;;;6.00;99.90;;;;;;5068280;28;20320;-52
2022/11/25 06:29:21;;;;;;;70.37;34.97;;;6.00;99.90;;;;;;5068536;28;20292;-53
2022/11/25 06:31:49;;;;;;;59.67;40.93;;;6.00;99.90;;;;;;5068304;28;20214;-53
2022/11/25 06:34:18;;;;;;;43.30;29.90;;;6.00;99.90;;;;;;5064121;28;20212;-53
2022/11/25 06:36:46;;;;;;;135.23;51.93;;;6.00;99.90;;;;;;5067475;28;20221;-51
2022/11/25 06:39:15;;;;;;;45.67;29.87;;;6.00;99.90;;;;;;5070934;28;20682;-52
2022/11/25 06:41:44;;;;;;;43.83;25.57;;;6.00;99.90;;;;;;5070830;28;20223;-54
2022/11/25 06:44:12;;;;;;;34.53;19.33;;;6.00;99.90;;;;;;5071567;28;20774;-54
2022/11/25 06:46:40;;;;;;;37.43;17.90;;;6.00;99.90;;;;;;5071204;28;20318;-52
2022/11/25 06:49:08;;;;;;;52.90;31.27;;;6.10;99.90;;;;;;5071381;28;20208;-53
2022/11/25 06:51:36;;;;;;;88.40;35.90;;;6.10;99.90;;;;;;5070035;28;20208;-53
2022/11/25 06:54:06;;;;;;;112.03;45.27;;;6.20;99.90;;;;;;5070314;28;20215;-52
2022/11/25 06:56:35;;;;;;;78.97;36.53;;;6.20;99.90;;;;;;5070650;28;20751;-53
2022/11/25 06:59:03;;;;;;;48.10;31.10;;;6.20;99.90;;;;;;5067634;28;20244;-53
2022/11/25 07:01:31;;;;;;;90.27;43.90;;;6.20;99.90;;;;;;5067564;28;20305;-53
2022/11/25 07:04:02;;;;;;;48.47;26.93;;;6.20;99.90;;;;;;5070447;28;20291;-52
2022/11/25 07:06:30;;;;;;;259.10;101.37;;;6.20;99.90;;;;;;5071020;28;20247;-53
2022/11/25 07:08:59;;;;;;;42.10;19.50;;;6.20;99.90;;;;;;5071208;28;20304;-52
2022/11/25 07:11:29;;;;;;;50.03;29.70;;;6.20;99.90;;;;;;5071019;28;20298;-52
2022/11/25 07:14:00;;;;;;;77.00;30.73;;;6.30;99.90;;;;;;5068989;28;20300;-53
2022/11/25 07:16:29;;;;;;;61.47;39.17;;;6.30;99.90;;;;;;5064533;28;20237;-53
2022/11/25 07:19:00;;;;;;;87.37;35.43;;;6.30;99.90;;;;;;5080118;28;20211;-52
2022/11/25 07:21:30;;;;;;;74.33;31.40;;;6.30;99.90;;;;;;5074609;28;20299;-52
2022/11/25 07:24:00;;;;;;;66.97;35.63;;;6.30;99.90;;;;;;5082274;28;20299;-52
2022/11/25 07:26:30;;;;;;;49.53;27.83;;;6.30;99.90;;;;;;5091473;28;20231;-52
2022/11/25 07:29:02;;;;;;;59.27;29.40;;;6.30;99.90;;;;;;5091547;28;20461;-53
2022/11/25 07:31:32;;;;;;;33.17;21.93;;;6.30;99.90;;;;;;5065007;28;20237;-53
2022/11/25 07:34:04;;;;;;;64.10;27.40;;;6.40;99.90;;;;;;5082791;28;20205;-53
2022/11/25 07:36:33;;;;;;;27.50;16.00;;;6.40;99.90;;;;;;5070215;28;20304;-52
2022/11/25 07:39:04;;;;;;;53.73;29.47;;;6.40;99.90;;;;;;5075943;28;20235;-53
2022/11/25 07:41:33;;;;;;;40.27;29.53;;;6.40;99.90;;;;;;5080399;28;20200;-52
2022/11/25 07:44:04;;;;;;;46.17;22.70;;;6.40;99.90;;;;;;5091061;28;20317;-52
2022/11/25 07:46:34;;;;;;;46.80;25.60;;;6.40;99.90;;;;;;5086577;28;20226;-51
2022/11/25 07:49:03;;;;;;;36.23;21.10;;;6.50;99.90;;;;;;5074899;28;20693;-52
2022/11/25 07:51:34;;;;;;;67.00;24.13;;;6.50;99.90;;;;;;5066636;28;20760;-53
2022/11/25 07:54:05;;;;;;;156.00;60.83;;;6.50;99.90;;;;;;5069824;28;20298;-53
2022/11/25 07:56:34;;;;;;;36.57;26.07;;;6.50;99.90;;;;;;5086634;28;20280;-52
2022/11/25 07:59:05;;;;;;;292.87;82.73;;;6.60;99.90;;;;;;5090990;28;20639;-52
2022/11/25 08:01:33;;;;;;;251.53;112.80;;;6.60;99.90;;;;;;5087690;28;20212;-51
2022/11/25 08:04:01;;;;;;;50.20;28.03;;;6.70;99.90;;;;;;5077691;28;20828;-52
2022/11/25 08:06:30;;;;;;;57.63;26.83;;;6.70;99.90;;;;;;5071879;28;20275;-52
2022/11/25 08:08:58;;;;;;;41.70;24.17;;;6.70;99.90;;;;;;5089443;28;20586;-52
2022/11/25 08:11:28;;;;;;;107.30;49.80;;;6.60;99.90;;;;;;5089872;28;20264;-52
2022/11/25 08:13:58;;;;;;;33.70;24.73;;;6.70;99.90;;;;;;5086903;28;20295;-51
2022/11/25 08:16:30;;;;;;;38.27;26.47;;;6.70;99.90;;;;;;5074823;28;20688;-52
2022/11/25 08:19:00;;;;;;;43.77;32.53;;;6.70;99.90;;;;;;5081878;28;20559;-54
2022/11/25 08:21:29;;;;;;;110.17;44.27;;;6.70;99.90;;;;;;5079852;28;20208;-52
2022/11/25 08:23:57;;;;;;;72.53;38.23;;;6.80;99.90;;;;;;5087069;28;20212;-52
2022/11/25 08:26:29;;;;;;;160.13;40.93;;;6.80;99.90;;;;;;5090426;28;20229;-52
2022/11/25 08:28:57;;;;;;;93.37;36.50;;;6.70;99.90;;;;;;5090420;28;20314;-53
2022/11/25 08:31:29;;;;;;;86.47;43.03;;;6.70;99.90;;;;;;5089696;28;20208;-53
2022/11/25 08:33:59;;;;;;;67.97;31.50;;;6.70;99.90;;;;;;5089512;28;20231;-52
2022/11/25 08:36:28;;;;;;;107.40;41.77;;;6.70;99.90;;;;;;5090225;28;20745;-52
2022/11/25 08:38:58;;;;;;;41.90;24.40;;;6.80;99.90;;;;;;5090196;28;20264;-52
2022/11/25 08:41:28;;;;;;;40.20;25.77;;;6.80;99.90;;;;;;5089171;28;20311;-52
2022/11/25 08:43:57;;;;;;;142.07;53.57;;;6.80;99.90;;;;;;5088968;28;20247;-52
2022/11/25 08:46:29;;;;;;;161.97;44.77;;;6.80;99.90;;;;;;5060507;28;20244;-52
2022/11/25 08:48:57;;;;;;;31.03;21.03;;;6.90;99.90;;;;;;5084339;28;20742;-52
2022/11/25 08:51:28;;;;;;;44.23;23.47;;;6.90;99.90;;;;;;5066336;28;20736;-53
2022/11/25 08:53:57;;;;;;;43.97;24.37;;;7.00;99.90;;;;;;5080831;28;20648;-51
2022/11/25 08:56:26;;;;;;;317.40;119.20;;;7.00;99.90;;;;;;5088165;28;20669;-52
2022/11/25 08:58:54;;;;;;;61.40;28.13;;;7.10;99.90;;;;;;5069314;28;20294;-53
2022/11/25 09:01:24;;;;;;;26.63;15.70;;;7.10;99.90;;;;;;5058422;28;20612;-52
2022/11/25 09:03:55;;;;;;;171.23;60.63;;;7.20;99.90;;;;;;5065384;28;20731;-52
2022/11/25 09:06:23;;;;;;;256.67;99.80;;;7.20;99.90;;;;;;5059271;28;20263;-52
2022/11/25 09:08:55;;;;;;;69.03;26.47;;;7.20;99.90;;;;;;5068143;28;20665;-53
2022/11/25 09:11:24;;;;;;;58.10;31.90;;;7.20;99.90;;;;;;5067285;28;20250;-53
2022/11/25 09:13:52;;;;;;;187.90;55.40;;;7.30;99.90;;;;;;5067954;28;20674;-53
2022/11/25 09:16:21;;;;;;;44.07;27.90;;;7.30;99.90;;;;;;5068680;28;20227;-53
2022/11/25 09:18:49;;;;;;;41.70;27.47;;;7.30;99.90;;;;;;5068902;28;20258;-53
2022/11/25 09:21:24;;;;;;;104.70;49.13;;;7.30;99.90;;;;;;5068286;28;20201;-53
2022/11/25 09:23:53;;;;;;;357.53;122.07;;;7.30;99.90;;;;;;5084994;28;20204;-53
2022/11/25 09:26:24;;;;;;;34.50;18.63;;;7.30;99.90;;;;;;5079114;28;20253;-52
2022/11/25 09:28:52;;;;;;;83.03;39.83;;;7.30;99.90;;;;;;5089291;28;20326;-53
2022/11/25 09:31:21;;;;;;;96.30;38.63;;;7.30;99.90;;;;;;5088898;28;20653;-54
2022/11/25 09:33:50;;;;;;;110.93;46.43;;;7.30;99.90;;;;;;5081197;28;20212;-53
2022/11/25 09:36:19;;;;;;;163.60;45.27;;;7.30;99.90;;;;;;5087740;28;20736;-53
2022/11/25 09:38:50;;;;;;;682.23;297.43;;;7.20;99.90;;;;;;5088217;28;20299;-53
2022/11/25 09:47:29;;;;;;;37.87;27.83;;;7.30;99.90;;;;;;5086801;28;20644;-53
2022/11/25 09:50:09;;;;;;;66.77;35.60;;;7.30;99.90;;;;;;5084558;28;20215;-52
2022/11/25 09:52:46;;;;;;;76.23;25.57;;;7.30;99.90;;;;;;5078239;28;20580;-52
2022/11/25 09:55:17;;;;;;;243.27;79.97;;;7.30;99.90;;;;;;5086031;28;20319;-52
2022/11/25 09:57:57;;;;;;;209.47;78.67;;;7.40;99.90;;;;;;5088749;28;20577;-52
2022/11/25 10:00:36;;;;;;;96.03;43.33;;;7.40;99.90;;;;;;5068608;28;20214;-52
2022/11/25 10:03:11;;;;;;;117.63;42.43;;;7.40;99.90;;;;;;5079970;28;20676;-52
2022/11/25 10:05:43;;;;;;;178.53;56.20;;;7.40;99.90;;;;;;5064572;28;20232;-52
2022/11/25 10:08:14;;;;;;;222.63;56.47;;;7.40;99.90;;;;;;5056436;28;20801;-53
2022/11/25 10:10:47;;;;;;;374.23;132.93;;;7.40;99.90;;;;;;5067922;28;20201;-53
2022/11/25 10:13:20;;;;;;;242.57;65.43;;;7.40;99.90;;;;;;5065883;28;20843;-53
2022/11/25 10:15:50;;;;;;;581.17;157.80;;;7.50;99.90;;;;;;5060579;28;20722;-53
2022/11/25 10:18:24;;;;;;;122.07;45.13;;;7.50;99.90;;;;;;5071915;28;20634;-53
2022/11/25 10:20:53;;;;;;;239.53;75.57;;;7.40;99.90;;;;;;5072198;28;20289;-51
2022/11/25 10:23:25;;;;;;;56.40;32.17;;;7.40;99.90;;;;;;5070006;28;20339;-53
2022/11/25 10:26:01;;;;;;;272.80;102.27;;;7.40;99.90;;;;;;5070913;28;20227;-53
2022/11/25 10:28:32;;;;;;;166.53;48.20;;;7.40;99.90;;;;;;5072398;28;20296;-54
2022/11/25 10:31:05;;;;;;;165.77;42.97;;;7.40;99.90;;;;;;5065627;28;20361;-52
2022/11/25 10:33:37;;;;;;;217.27;86.50;;;7.30;99.90;;;;;;5071527;28;20209;-53
2022/11/25 10:36:14;;;;;;;215.37;75.13;;;7.20;99.90;;;;;;5071739;28;20263;-52
2022/11/25 10:38:45;;;;;;;1950.80;496.70;;;7.20;99.90;;;;;;5072280;28;20201;-52
2022/11/25 10:41:18;;;;;;;152.40;52.00;;;7.20;99.90;;;;;;5070901;28;20196;-53
2022/11/25 10:43:47;;;;;;;45.20;40.30;;;7.20;99.90;;;;;;5071756;28;20298;-52
2022/11/25 10:46:26;;;;;;;270.53;79.03;;;7.20;99.90;;;;;;5071181;28;20696;-53
2022/11/25 10:49:19;;;;;;;130.40;68.80;;;7.30;99.90;;;;;;5071676;28;20236;-53
2022/11/25 10:51:50;;;;;;;174.87;71.40;;;7.40;99.90;;;;;;5071166;28;20299;-52
2022/11/25 10:54:20;;;;;;;339.97;106.47;;;7.40;99.90;;;;;;5059348;28;20279;-52
2022/11/25 10:56:57;;;;;;;177.67;78.47;;;7.40;99.90;;;;;;5070387;28;20236;-52
2022/11/25 10:59:28;;;;;;;44.57;30.10;;;7.40;99.90;;;;;;5071429;28;20229;-53
2022/11/25 11:02:16;;;;;;;221.03;84.87;;;7.40;99.90;;;;;;5071059;28;20319;-53
2022/11/25 11:04:57;;;;;;;169.33;63.90;;;7.40;99.90;;;;;;5070975;28;20218;-53
2022/11/25 11:07:26;;;;;;;113.97;43.80;;;7.40;99.90;;;;;;5071596;28;20244;-52
2022/11/25 11:09:55;;;;;;;237.27;92.73;;;7.50;99.90;;;;;;5067971;28;20704;-52
2022/11/25 11:12:26;;;;;;;58.07;30.90;;;7.60;99.90;;;;;;5070920;28;20300;-52
2022/11/25 11:15:15;;;;;;;238.73;68.77;;;7.60;99.90;;;;;;5060440;28;20348;-53
2022/11/25 11:17:43;;;;;;;60.77;41.33;;;7.70;99.90;;;;;;5070985;28;20212;-53
2022/11/25 11:20:17;;;;;;;38.33;28.10;;;7.60;99.90;;;;;;5069235;28;20292;-53
2022/11/25 11:22:49;;;;;;;168.50;56.73;;;7.60;99.90;;;;;;5077829;28;20243;-53
2022/11/25 11:25:29;;;;;;;155.63;57.67;;;7.60;99.90;;;;;;5088778;28;20228;-53
2022/11/25 11:28:00;;;;;;;588.50;210.37;;;7.60;99.90;;;;;;5073255;28;20200;-51
2022/11/25 11:30:30;;;;;;;137.57;52.47;;;7.50;99.90;;;;;;5091299;28;20346;-53
2022/11/25 11:33:02;;;;;;;51.40;39.80;;;7.60;99.90;;;;;;5090757;28;20231;-53
2022/11/25 11:35:44;;;;;;;38.93;30.40;;;7.60;99.90;;;;;;5066429;28;20657;-53
2022/11/25 11:38:31;;;;;;;236.73;70.27;;;7.60;99.90;;;;;;5090973;28;20689;-53
2022/11/25 11:41:11;;;;;;;41.17;26.67;;;7.60;99.90;;;;;;5089930;28;20244;-53
2022/11/25 11:43:55;;;;;;;173.90;56.87;;;7.60;99.90;;;;;;5070229;28;20256;-53
2022/11/25 11:46:36;;;;;;;140.60;62.23;;;7.60;99.90;;;;;;5090172;28;20277;-53
2022/11/25 11:49:23;;;;;;;149.83;56.87;;;7.60;99.90;;;;;;5090777;28;20727;-53
2022/11/25 11:52:04;;;;;;;124.20;64.17;;;7.60;99.90;;;;;;5089387;28;20208;-53
2022/11/25 11:54:35;;;;;;;236.17;97.10;;;7.60;99.90;;;;;;5091093;28;20226;-53
2022/11/25 11:57:07;;;;;;;60.90;39.37;;;7.60;99.90;;;;;;5062530;28;20668;-53
2022/11/25 11:59:48;;;;;;;145.20;58.33;;;7.60;99.90;;;;;;5069390;28;20285;-53
2022/11/25 12:02:26;;;;;;;53.47;39.53;;;7.60;99.90;;;;;;5065007;28;20200;-53
2022/11/25 12:05:04;;;;;;;156.60;57.03;;;7.60;99.90;;;;;;5068073;28;20237;-54
2022/11/25 12:07:36;;;;;;;299.67;90.27;;;7.90;99.90;;;;;;5062270;28;20247;-53
2022/11/25 12:10:15;;;;;;;296.73;104.80;;;8.00;99.90;;;;;;5070098;28;20307;-53
2022/11/25 12:12:51;;;;;;;270.80;107.73;;;8.00;99.90;;;;;;5062763;28;20204;-52
2022/11/25 12:15:29;;;;;;;82.10;38.30;;;8.00;99.90;;;;;;5070158;28;20312;-53
2022/11/25 12:18:02;;;;;;;529.13;132.73;;;8.00;99.90;;;;;;5070864;28;20288;-53
2022/11/25 12:20:38;;;;;;;731.47;159.57;;;7.90;99.90;;;;;;5069111;28;20293;-52
2022/11/25 12:23:11;;;;;;;151.90;63.63;;;7.90;99.90;;;;;;5080244;28;20296;-52
2022/11/25 12:25:41;;;;;;;131.43;54.37;;;7.90;99.90;;;;;;5090226;28;20224;-52
2022/11/25 12:28:15;;;;;;;249.17;91.43;;;7.90;99.90;;;;;;5090676;28;20206;-53
2022/11/25 12:30:58;;;;;;;415.67;95.80;;;7.90;99.90;;;;;;5090602;28;21465;-52
2022/11/25 12:33:42;;;;;;;285.87;104.30;;;8.00;99.90;;;;;;5089661;28;20681;-52
2022/11/25 12:36:14;;;;;;;325.70;119.33;;;8.10;99.90;;;;;;5088903;28;20331;-53
2022/11/25 12:38:46;;;;;;;80.43;41.77;;;8.10;99.90;;;;;;5090654;28;20323;-53
2022/11/25 12:41:24;;;;;;;460.33;127.97;;;8.20;99.90;;;;;;5090084;28;20304;-53
2022/11/25 12:43:59;;;;;;;288.93;85.10;;;8.10;99.90;;;;;;5090391;28;20222;-52
2022/11/25 12:46:36;;;;;;;527.30;175.33;;;8.00;99.90;;;;;;5090303;28;20763;-52
2022/11/25 12:49:06;;;;;;;76.37;40.50;;;8.00;99.90;;;;;;5089864;28;20208;-52
2022/11/25 12:51:57;;;;;;;307.30;83.73;;;8.10;99.90;;;;;;5062727;28;20200;-52
2022/11/25 12:54:42;;;;;;;678.47;176.60;;;8.20;99.90;;;;;;5090193;28;20204;-52
2022/11/25 12:57:48;;;;;;;34.30;27.83;;;8.30;99.90;;;;;;5087238;28;20264;-53
2022/11/25 13:00:20;;;;;;;136.37;49.83;;;8.30;99.90;;;;;;5040038;28;20208;-53
2022/11/25 13:03:42;;;;;;;709.17;226.23;;;8.40;99.90;;;;;;5073061;28;20208;-53
2022/11/25 13:06:29;;;;;;;193.37;61.47;;;8.50;99.90;;;;;;5082577;28;20270;-54